sensor_id;sensor_type;location;lat;lon;timestamp;P1;durP1;ratioP1;P2;durP2;ratioP2
83141;SDS011;75194;51.180;5.972;2024-01-07T00:01:31;21.35;;;8.45;;
83141;SDS011;75194;51.180;5.972;2024-01-07T00:03:57;22.40;;;10.65;;
83141;SDS011;75194;51.180;5.972;2024-01-07T00:06:22;22.48;;;9.63;;
83141;SDS011;75194;51.180;5.972;2024-01-07T00:08:48;24.45;;;9.77;;
83141;SDS011;75194;51.180;5.972;2024-01-07T00:11:14;23.00;;;11.20;;
83141;SDS011;75194;51.180;5.972;2024-01-07T00:13:40;22.70;;;9.68;;
83141;SDS011;75194;51.180;5.972;2024-01-07T00:16:06;22.92;;;9.57;;
83141;SDS011;75194;51.180;5.972;2024-01-07T00:18:31;23.52;;;10.25;;
83141;SDS011;75194;51.180;5.972;2024-01-07T00:20:57;21.55;;;9.50;;
83141;SDS011;75194;51.180;5.972;2024-01-07T00:23:23;22.48;;;10.07;;
83141;SDS011;75194;51.180;5.972;2024-01-07T00:25:49;22.30;;;9.48;;
83141;SDS011;75194;51.180;5.972;2024-01-07T00:28:15;22.50;;;9.63;;
83141;SDS011;75194;51.180;5.972;2024-01-07T00:30:40;22.05;;;10.13;;
83141;SDS011;75194;51.180;5.972;2024-01-07T00:33:06;20.92;;;9.15;;
83141;SDS011;75194;51.180;5.972;2024-01-07T00:35:32;23.67;;;9.57;;
83141;SDS011;75194;51.180;5.972;2024-01-07T00:37:57;24.30;;;10.05;;
83141;SDS011;75194;51.180;5.972;2024-01-07T00:40:23;21.67;;;9.60;;
83141;SDS011;75194;51.180;5.972;2024-01-07T00:42:49;22.88;;;9.40;;
83141;SDS011;75194;51.180;5.972;2024-01-07T00:45:16;21.63;;;9.50;;
83141;SDS011;75194;51.180;5.972;2024-01-07T00:47:42;24.05;;;10.63;;
83141;SDS011;75194;51.180;5.972;2024-01-07T00:50:08;27.52;;;10.85;;
83141;SDS011;75194;51.180;5.972;2024-01-07T00:52:34;24.73;;;11.15;;
83141;SDS011;75194;51.180;5.972;2024-01-07T00:55:02;23.08;;;11.30;;
83141;SDS011;75194;51.180;5.972;2024-01-07T00:57:28;24.30;;;10.45;;
83141;SDS011;75194;51.180;5.972;2024-01-07T00:59:54;23.92;;;10.60;;
83141;SDS011;75194;51.180;5.972;2024-01-07T01:02:20;24.88;;;10.57;;
83141;SDS011;75194;51.180;5.972;2024-01-07T01:04:46;25.23;;;10.95;;
83141;SDS011;75194;51.180;5.972;2024-01-07T01:07:11;25.88;;;10.23;;
83141;SDS011;75194;51.180;5.972;2024-01-07T01:09:37;25.83;;;10.98;;
83141;SDS011;75194;51.180;5.972;2024-01-07T01:12:03;24.45;;;9.32;;
83141;SDS011;75194;51.180;5.972;2024-01-07T01:14:29;26.15;;;11.00;;
83141;SDS011;75194;51.180;5.972;2024-01-07T01:16:55;24.23;;;10.50;;
83141;SDS011;75194;51.180;5.972;2024-01-07T01:19:20;24.23;;;10.75;;
83141;SDS011;75194;51.180;5.972;2024-01-07T01:21:46;25.40;;;11.40;;
83141;SDS011;75194;51.180;5.972;2024-01-07T01:24:12;28.50;;;10.55;;
83141;SDS011;75194;51.180;5.972;2024-01-07T01:26:37;26.00;;;9.98;;
83141;SDS011;75194;51.180;5.972;2024-01-07T01:29:04;26.75;;;10.85;;
83141;SDS011;75194;51.180;5.972;2024-01-07T01:31:30;26.40;;;10.82;;
83141;SDS011;75194;51.180;5.972;2024-01-07T01:33:55;25.13;;;10.68;;
83141;SDS011;75194;51.180;5.972;2024-01-07T01:36:21;28.08;;;11.32;;
83141;SDS011;75194;51.180;5.972;2024-01-07T01:38:47;24.80;;;10.77;;
83141;SDS011;75194;51.180;5.972;2024-01-07T01:41:13;26.92;;;10.70;;
83141;SDS011;75194;51.180;5.972;2024-01-07T01:43:41;25.77;;;10.30;;
83141;SDS011;75194;51.180;5.972;2024-01-07T01:46:06;28.35;;;9.98;;
83141;SDS011;75194;51.180;5.972;2024-01-07T01:48:32;26.30;;;10.65;;
83141;SDS011;75194;51.180;5.972;2024-01-07T01:51:00;25.92;;;10.50;;
83141;SDS011;75194;51.180;5.972;2024-01-07T01:53:26;24.90;;;10.70;;
83141;SDS011;75194;51.180;5.972;2024-01-07T01:55:52;22.70;;;9.32;;
83141;SDS011;75194;51.180;5.972;2024-01-07T01:58:19;19.60;;;9.05;;
83141;SDS011;75194;51.180;5.972;2024-01-07T02:00:46;21.77;;;8.05;;
83141;SDS011;75194;51.180;5.972;2024-01-07T02:03:12;21.35;;;8.00;;
83141;SDS011;75194;51.180;5.972;2024-01-07T02:05:38;24.25;;;9.07;;
83141;SDS011;75194;51.180;5.972;2024-01-07T02:08:04;21.27;;;8.82;;
83141;SDS011;75194;51.180;5.972;2024-01-07T02:10:30;21.20;;;8.55;;
83141;SDS011;75194;51.180;5.972;2024-01-07T02:12:59;22.52;;;8.32;;
83141;SDS011;75194;51.180;5.972;2024-01-07T02:15:25;20.38;;;8.60;;
83141;SDS011;75194;51.180;5.972;2024-01-07T02:17:51;22.63;;;8.88;;
83141;SDS011;75194;51.180;5.972;2024-01-07T02:20:17;19.45;;;7.93;;
83141;SDS011;75194;51.180;5.972;2024-01-07T02:22:42;19.35;;;8.48;;
83141;SDS011;75194;51.180;5.972;2024-01-07T02:25:08;17.13;;;7.15;;
83141;SDS011;75194;51.180;5.972;2024-01-07T02:27:34;19.70;;;8.48;;
83141;SDS011;75194;51.180;5.972;2024-01-07T02:29:59;21.50;;;8.27;;
83141;SDS011;75194;51.180;5.972;2024-01-07T02:32:25;20.33;;;7.55;;
83141;SDS011;75194;51.180;5.972;2024-01-07T02:34:51;23.42;;;8.60;;
83141;SDS011;75194;51.180;5.972;2024-01-07T02:37:17;20.27;;;8.57;;
83141;SDS011;75194;51.180;5.972;2024-01-07T02:39:43;19.85;;;8.48;;
83141;SDS011;75194;51.180;5.972;2024-01-07T02:42:09;21.17;;;8.60;;
83141;SDS011;75194;51.180;5.972;2024-01-07T02:44:35;21.75;;;8.60;;
83141;SDS011;75194;51.180;5.972;2024-01-07T02:47:01;21.92;;;8.95;;
83141;SDS011;75194;51.180;5.972;2024-01-07T02:49:26;21.70;;;8.48;;
83141;SDS011;75194;51.180;5.972;2024-01-07T02:51:53;21.80;;;8.05;;
83141;SDS011;75194;51.180;5.972;2024-01-07T02:54:19;23.63;;;8.32;;
83141;SDS011;75194;51.180;5.972;2024-01-07T02:56:44;19.73;;;8.82;;
83141;SDS011;75194;51.180;5.972;2024-01-07T02:59:10;19.05;;;8.00;;
83141;SDS011;75194;51.180;5.972;2024-01-07T03:01:36;19.65;;;8.13;;
83141;SDS011;75194;51.180;5.972;2024-01-07T03:04:05;18.98;;;7.88;;
83141;SDS011;75194;51.180;5.972;2024-01-07T03:06:32;19.67;;;7.57;;
83141;SDS011;75194;51.180;5.972;2024-01-07T03:08:58;20.80;;;7.57;;
83141;SDS011;75194;51.180;5.972;2024-01-07T03:11:24;20.10;;;7.38;;
83141;SDS011;75194;51.180;5.972;2024-01-07T03:13:49;20.60;;;8.13;;
83141;SDS011;75194;51.180;5.972;2024-01-07T03:16:21;22.23;;;8.38;;
83141;SDS011;75194;51.180;5.972;2024-01-07T03:18:48;20.30;;;7.75;;
83141;SDS011;75194;51.180;5.972;2024-01-07T03:21:20;17.65;;;7.40;;
83141;SDS011;75194;51.180;5.972;2024-01-07T03:23:47;19.20;;;7.97;;
83141;SDS011;75194;51.180;5.972;2024-01-07T03:26:14;17.48;;;7.20;;
83141;SDS011;75194;51.180;5.972;2024-01-07T03:28:40;17.38;;;7.38;;
83141;SDS011;75194;51.180;5.972;2024-01-07T03:31:11;17.10;;;7.18;;
83141;SDS011;75194;51.180;5.972;2024-01-07T03:33:38;17.88;;;6.80;;
83141;SDS011;75194;51.180;5.972;2024-01-07T03:36:09;18.63;;;7.60;;
83141;SDS011;75194;51.180;5.972;2024-01-07T03:38:36;17.38;;;6.97;;
83141;SDS011;75194;51.180;5.972;2024-01-07T03:41:02;16.73;;;7.60;;
83141;SDS011;75194;51.180;5.972;2024-01-07T03:43:28;13.55;;;5.80;;
83141;SDS011;75194;51.180;5.972;2024-01-07T03:45:54;16.35;;;6.50;;
83141;SDS011;75194;51.180;5.972;2024-01-07T03:48:20;16.85;;;6.63;;
83141;SDS011;75194;51.180;5.972;2024-01-07T03:50:45;16.13;;;7.38;;
83141;SDS011;75194;51.180;5.972;2024-01-07T03:53:12;15.38;;;6.30;;
83141;SDS011;75194;51.180;5.972;2024-01-07T03:55:38;18.20;;;6.95;;
83141;SDS011;75194;51.180;5.972;2024-01-07T03:58:04;17.98;;;7.50;;
83141;SDS011;75194;51.180;5.972;2024-01-07T04:00:33;16.70;;;6.20;;
83141;SDS011;75194;51.180;5.972;2024-01-07T04:03:00;16.13;;;6.93;;
83141;SDS011;75194;51.180;5.972;2024-01-07T04:05:25;20.50;;;7.68;;
83141;SDS011;75194;51.180;5.972;2024-01-07T04:07:51;16.65;;;6.72;;
83141;SDS011;75194;51.180;5.972;2024-01-07T04:10:17;17.52;;;7.13;;
83141;SDS011;75194;51.180;5.972;2024-01-07T04:12:43;18.65;;;8.05;;
83141;SDS011;75194;51.180;5.972;2024-01-07T04:15:09;18.35;;;7.78;;
83141;SDS011;75194;51.180;5.972;2024-01-07T04:17:35;17.13;;;6.90;;
83141;SDS011;75194;51.180;5.972;2024-01-07T04:20:01;18.05;;;6.68;;
83141;SDS011;75194;51.180;5.972;2024-01-07T04:22:26;17.85;;;7.20;;
83141;SDS011;75194;51.180;5.972;2024-01-07T04:24:52;19.45;;;8.75;;
83141;SDS011;75194;51.180;5.972;2024-01-07T04:27:18;16.98;;;7.03;;
83141;SDS011;75194;51.180;5.972;2024-01-07T04:29:43;16.98;;;7.30;;
83141;SDS011;75194;51.180;5.972;2024-01-07T04:32:09;16.90;;;7.22;;
83141;SDS011;75194;51.180;5.972;2024-01-07T04:34:35;17.30;;;7.68;;
83141;SDS011;75194;51.180;5.972;2024-01-07T04:37:00;16.85;;;6.72;;
83141;SDS011;75194;51.180;5.972;2024-01-07T04:39:26;16.60;;;7.95;;
83141;SDS011;75194;51.180;5.972;2024-01-07T04:41:52;17.25;;;7.05;;
83141;SDS011;75194;51.180;5.972;2024-01-07T04:44:17;18.48;;;7.75;;
83141;SDS011;75194;51.180;5.972;2024-01-07T04:46:43;15.25;;;7.40;;
83141;SDS011;75194;51.180;5.972;2024-01-07T04:49:08;16.02;;;7.43;;
83141;SDS011;75194;51.180;5.972;2024-01-07T04:51:34;20.73;;;7.93;;
83141;SDS011;75194;51.180;5.972;2024-01-07T04:54:01;19.08;;;8.00;;
83141;SDS011;75194;51.180;5.972;2024-01-07T04:56:27;17.08;;;7.68;;
83141;SDS011;75194;51.180;5.972;2024-01-07T04:58:53;17.92;;;7.38;;
83141;SDS011;75194;51.180;5.972;2024-01-07T05:01:18;19.42;;;7.50;;
83141;SDS011;75194;51.180;5.972;2024-01-07T05:03:44;19.27;;;8.25;;
83141;SDS011;75194;51.180;5.972;2024-01-07T05:06:10;20.63;;;8.10;;
83141;SDS011;75194;51.180;5.972;2024-01-07T05:08:36;22.48;;;8.32;;
83141;SDS011;75194;51.180;5.972;2024-01-07T05:11:03;21.33;;;8.57;;
83141;SDS011;75194;51.180;5.972;2024-01-07T05:13:29;17.95;;;8.05;;
83141;SDS011;75194;51.180;5.972;2024-01-07T05:15:55;19.33;;;7.70;;
83141;SDS011;75194;51.180;5.972;2024-01-07T05:18:21;21.02;;;8.00;;
83141;SDS011;75194;51.180;5.972;2024-01-07T05:20:47;20.33;;;8.85;;
83141;SDS011;75194;51.180;5.972;2024-01-07T05:23:13;23.02;;;8.95;;
83141;SDS011;75194;51.180;5.972;2024-01-07T05:25:39;19.02;;;7.63;;
83141;SDS011;75194;51.180;5.972;2024-01-07T05:28:05;20.17;;;8.52;;
83141;SDS011;75194;51.180;5.972;2024-01-07T05:30:31;22.42;;;8.85;;
83141;SDS011;75194;51.180;5.972;2024-01-07T05:32:57;19.23;;;9.43;;
83141;SDS011;75194;51.180;5.972;2024-01-07T05:35:22;18.38;;;7.93;;
83141;SDS011;75194;51.180;5.972;2024-01-07T05:37:48;20.20;;;8.07;;
83141;SDS011;75194;51.180;5.972;2024-01-07T05:40:13;18.83;;;8.93;;
83141;SDS011;75194;51.180;5.972;2024-01-07T05:42:39;18.98;;;8.20;;
83141;SDS011;75194;51.180;5.972;2024-01-07T05:45:05;20.58;;;8.30;;
83141;SDS011;75194;51.180;5.972;2024-01-07T05:47:31;15.80;;;7.72;;
83141;SDS011;75194;51.180;5.972;2024-01-07T05:49:57;20.00;;;9.15;;
83141;SDS011;75194;51.180;5.972;2024-01-07T05:52:23;19.95;;;7.93;;
83141;SDS011;75194;51.180;5.972;2024-01-07T05:54:50;16.40;;;7.43;;
83141;SDS011;75194;51.180;5.972;2024-01-07T05:57:15;18.00;;;7.65;;
83141;SDS011;75194;51.180;5.972;2024-01-07T05:59:43;16.70;;;7.28;;
83141;SDS011;75194;51.180;5.972;2024-01-07T06:02:09;15.70;;;6.80;;
83141;SDS011;75194;51.180;5.972;2024-01-07T06:04:34;17.13;;;7.68;;
83141;SDS011;75194;51.180;5.972;2024-01-07T06:07:02;17.35;;;7.15;;
83141;SDS011;75194;51.180;5.972;2024-01-07T06:09:28;19.60;;;7.80;;
83141;SDS011;75194;51.180;5.972;2024-01-07T06:11:54;20.77;;;8.18;;
83141;SDS011;75194;51.180;5.972;2024-01-07T06:14:20;16.77;;;7.63;;
83141;SDS011;75194;51.180;5.972;2024-01-07T06:16:47;19.33;;;8.30;;
83141;SDS011;75194;51.180;5.972;2024-01-07T06:19:12;19.92;;;8.50;;
83141;SDS011;75194;51.180;5.972;2024-01-07T06:21:39;18.67;;;8.40;;
83141;SDS011;75194;51.180;5.972;2024-01-07T06:24:07;17.27;;;7.63;;
83141;SDS011;75194;51.180;5.972;2024-01-07T06:26:33;17.00;;;7.47;;
83141;SDS011;75194;51.180;5.972;2024-01-07T06:28:59;19.40;;;8.40;;
83141;SDS011;75194;51.180;5.972;2024-01-07T06:31:25;19.42;;;7.70;;
83141;SDS011;75194;51.180;5.972;2024-01-07T06:33:51;18.60;;;8.77;;
83141;SDS011;75194;51.180;5.972;2024-01-07T06:36:16;17.60;;;8.48;;
83141;SDS011;75194;51.180;5.972;2024-01-07T06:38:42;16.92;;;7.55;;
83141;SDS011;75194;51.180;5.972;2024-01-07T06:41:09;17.85;;;7.95;;
83141;SDS011;75194;51.180;5.972;2024-01-07T06:43:35;17.65;;;8.32;;
83141;SDS011;75194;51.180;5.972;2024-01-07T06:46:01;17.42;;;7.43;;
83141;SDS011;75194;51.180;5.972;2024-01-07T06:48:26;16.50;;;7.80;;
83141;SDS011;75194;51.180;5.972;2024-01-07T06:50:52;21.45;;;8.80;;
83141;SDS011;75194;51.180;5.972;2024-01-07T06:53:18;17.85;;;7.93;;
83141;SDS011;75194;51.180;5.972;2024-01-07T06:55:43;17.75;;;7.70;;
83141;SDS011;75194;51.180;5.972;2024-01-07T06:58:09;17.48;;;8.32;;
83141;SDS011;75194;51.180;5.972;2024-01-07T07:00:35;18.85;;;7.93;;
83141;SDS011;75194;51.180;5.972;2024-01-07T07:03:00;17.67;;;7.63;;
83141;SDS011;75194;51.180;5.972;2024-01-07T07:05:26;19.15;;;8.30;;
83141;SDS011;75194;51.180;5.972;2024-01-07T07:07:52;17.55;;;7.68;;
83141;SDS011;75194;51.180;5.972;2024-01-07T07:10:17;18.05;;;7.25;;
83141;SDS011;75194;51.180;5.972;2024-01-07T07:12:43;16.30;;;7.68;;
83141;SDS011;75194;51.180;5.972;2024-01-07T07:15:09;14.90;;;7.57;;
83141;SDS011;75194;51.180;5.972;2024-01-07T07:17:40;15.35;;;8.02;;
83141;SDS011;75194;51.180;5.972;2024-01-07T07:20:06;17.30;;;7.80;;
83141;SDS011;75194;51.180;5.972;2024-01-07T07:22:32;16.63;;;7.25;;
83141;SDS011;75194;51.180;5.972;2024-01-07T07:24:57;15.02;;;6.90;;
83141;SDS011;75194;51.180;5.972;2024-01-07T07:27:23;15.27;;;6.55;;
83141;SDS011;75194;51.180;5.972;2024-01-07T07:29:49;15.85;;;7.78;;
83141;SDS011;75194;51.180;5.972;2024-01-07T07:32:15;13.90;;;6.25;;
83141;SDS011;75194;51.180;5.972;2024-01-07T07:34:40;14.52;;;6.38;;
83141;SDS011;75194;51.180;5.972;2024-01-07T07:37:06;13.07;;;6.30;;
83141;SDS011;75194;51.180;5.972;2024-01-07T07:39:32;11.38;;;5.45;;
83141;SDS011;75194;51.180;5.972;2024-01-07T07:41:57;15.25;;;6.93;;
83141;SDS011;75194;51.180;5.972;2024-01-07T07:44:23;17.05;;;7.95;;
83141;SDS011;75194;51.180;5.972;2024-01-07T07:46:49;17.38;;;7.80;;
83141;SDS011;75194;51.180;5.972;2024-01-07T07:49:15;16.98;;;9.48;;
83141;SDS011;75194;51.180;5.972;2024-01-07T07:51:41;14.25;;;7.60;;
83141;SDS011;75194;51.180;5.972;2024-01-07T07:54:08;19.23;;;8.20;;
83141;SDS011;75194;51.180;5.972;2024-01-07T07:56:33;18.20;;;7.72;;
83141;SDS011;75194;51.180;5.972;2024-01-07T07:59:00;19.02;;;8.43;;
83141;SDS011;75194;51.180;5.972;2024-01-07T08:01:29;19.58;;;9.10;;
83141;SDS011;75194;51.180;5.972;2024-01-07T08:03:55;17.88;;;7.68;;
83141;SDS011;75194;51.180;5.972;2024-01-07T08:06:20;19.67;;;8.65;;
83141;SDS011;75194;51.180;5.972;2024-01-07T08:08:46;17.60;;;9.23;;
83141;SDS011;75194;51.180;5.972;2024-01-07T08:11:12;16.90;;;8.10;;
83141;SDS011;75194;51.180;5.972;2024-01-07T08:13:38;18.98;;;8.55;;
83141;SDS011;75194;51.180;5.972;2024-01-07T08:16:04;19.52;;;9.32;;
83141;SDS011;75194;51.180;5.972;2024-01-07T08:18:30;15.15;;;8.10;;
83141;SDS011;75194;51.180;5.972;2024-01-07T08:20:56;17.55;;;7.95;;
83141;SDS011;75194;51.180;5.972;2024-01-07T08:23:22;17.17;;;8.50;;
83141;SDS011;75194;51.180;5.972;2024-01-07T08:25:49;18.50;;;8.50;;
83141;SDS011;75194;51.180;5.972;2024-01-07T08:28:16;18.17;;;8.00;;
83141;SDS011;75194;51.180;5.972;2024-01-07T08:30:42;16.75;;;8.85;;
83141;SDS011;75194;51.180;5.972;2024-01-07T08:33:07;18.88;;;8.45;;
83141;SDS011;75194;51.180;5.972;2024-01-07T08:35:33;17.67;;;8.80;;
83141;SDS011;75194;51.180;5.972;2024-01-07T08:37:58;20.90;;;8.73;;
83141;SDS011;75194;51.180;5.972;2024-01-07T08:40:24;19.15;;;8.55;;
83141;SDS011;75194;51.180;5.972;2024-01-07T08:42:49;16.25;;;7.10;;
83141;SDS011;75194;51.180;5.972;2024-01-07T08:45:15;18.50;;;7.25;;
83141;SDS011;75194;51.180;5.972;2024-01-07T08:47:41;18.05;;;8.02;;
83141;SDS011;75194;51.180;5.972;2024-01-07T08:50:06;17.98;;;7.75;;
83141;SDS011;75194;51.180;5.972;2024-01-07T08:52:32;15.30;;;6.82;;
83141;SDS011;75194;51.180;5.972;2024-01-07T08:55:00;15.73;;;8.13;;
83141;SDS011;75194;51.180;5.972;2024-01-07T08:57:27;17.65;;;8.23;;
83141;SDS011;75194;51.180;5.972;2024-01-07T08:59:52;16.95;;;7.13;;
83141;SDS011;75194;51.180;5.972;2024-01-07T09:02:18;17.13;;;7.95;;
83141;SDS011;75194;51.180;5.972;2024-01-07T09:04:44;16.85;;;7.32;;
83141;SDS011;75194;51.180;5.972;2024-01-07T09:07:10;16.08;;;8.32;;
83141;SDS011;75194;51.180;5.972;2024-01-07T09:09:35;18.08;;;7.95;;
83141;SDS011;75194;51.180;5.972;2024-01-07T09:12:01;16.77;;;8.32;;
83141;SDS011;75194;51.180;5.972;2024-01-07T09:14:28;15.35;;;8.23;;
83141;SDS011;75194;51.180;5.972;2024-01-07T09:16:55;15.93;;;7.57;;
83141;SDS011;75194;51.180;5.972;2024-01-07T09:19:20;18.73;;;8.50;;
83141;SDS011;75194;51.180;5.972;2024-01-07T09:21:46;14.55;;;6.70;;
83141;SDS011;75194;51.180;5.972;2024-01-07T09:24:12;14.15;;;7.50;;
83141;SDS011;75194;51.180;5.972;2024-01-07T09:26:37;15.95;;;7.15;;
83141;SDS011;75194;51.180;5.972;2024-01-07T09:29:03;17.05;;;7.82;;
83141;SDS011;75194;51.180;5.972;2024-01-07T09:31:29;17.90;;;8.10;;
83141;SDS011;75194;51.180;5.972;2024-01-07T09:33:54;18.92;;;7.95;;
83141;SDS011;75194;51.180;5.972;2024-01-07T09:36:20;18.15;;;8.45;;
83141;SDS011;75194;51.180;5.972;2024-01-07T09:38:46;18.13;;;8.32;;
83141;SDS011;75194;51.180;5.972;2024-01-07T09:41:11;17.05;;;8.05;;
83141;SDS011;75194;51.180;5.972;2024-01-07T09:43:37;18.40;;;8.60;;
83141;SDS011;75194;51.180;5.972;2024-01-07T09:46:03;19.05;;;8.50;;
83141;SDS011;75194;51.180;5.972;2024-01-07T09:48:29;18.95;;;8.77;;
83141;SDS011;75194;51.180;5.972;2024-01-07T09:50:55;17.70;;;8.07;;
83141;SDS011;75194;51.180;5.972;2024-01-07T09:53:25;18.55;;;8.50;;
83141;SDS011;75194;51.180;5.972;2024-01-07T09:56:11;19.70;;;8.27;;
83141;SDS011;75194;51.180;5.972;2024-01-07T09:58:45;15.60;;;8.00;;
83141;SDS011;75194;51.180;5.972;2024-01-07T10:01:18;16.30;;;8.23;;
83141;SDS011;75194;51.180;5.972;2024-01-07T10:03:43;18.70;;;8.82;;
83141;SDS011;75194;51.180;5.972;2024-01-07T10:06:12;19.80;;;8.73;;
83141;SDS011;75194;51.180;5.972;2024-01-07T10:08:38;18.17;;;8.45;;
83141;SDS011;75194;51.180;5.972;2024-01-07T10:11:04;16.85;;;8.57;;
83141;SDS011;75194;51.180;5.972;2024-01-07T10:13:30;16.15;;;7.30;;
83141;SDS011;75194;51.180;5.972;2024-01-07T10:15:57;17.25;;;8.02;;
83141;SDS011;75194;51.180;5.972;2024-01-07T10:18:23;16.80;;;8.30;;
83141;SDS011;75194;51.180;5.972;2024-01-07T10:20:50;16.20;;;8.27;;
83141;SDS011;75194;51.180;5.972;2024-01-07T10:23:19;17.65;;;8.23;;
83141;SDS011;75194;51.180;5.972;2024-01-07T10:25:44;17.30;;;8.57;;
83141;SDS011;75194;51.180;5.972;2024-01-07T10:28:10;16.85;;;7.88;;
83141;SDS011;75194;51.180;5.972;2024-01-07T10:30:39;16.42;;;7.47;;
83141;SDS011;75194;51.180;5.972;2024-01-07T10:33:05;18.75;;;8.75;;
83141;SDS011;75194;51.180;5.972;2024-01-07T10:35:33;15.75;;;8.45;;
83141;SDS011;75194;51.180;5.972;2024-01-07T10:38:00;20.13;;;8.18;;
83141;SDS011;75194;51.180;5.972;2024-01-07T10:40:27;18.20;;;8.30;;
83141;SDS011;75194;51.180;5.972;2024-01-07T10:45:20;19.17;;;8.82;;
83141;SDS011;75194;51.180;5.972;2024-01-07T10:47:49;17.30;;;8.50;;
83141;SDS011;75194;51.180;5.972;2024-01-07T10:50:19;19.60;;;8.30;;
83141;SDS011;75194;51.180;5.972;2024-01-07T10:52:50;16.45;;;7.45;;
83141;SDS011;75194;51.180;5.972;2024-01-07T10:55:22;18.65;;;8.68;;
83141;SDS011;75194;51.180;5.972;2024-01-07T10:57:51;21.17;;;9.10;;
83141;SDS011;75194;51.180;5.972;2024-01-07T11:00:18;18.60;;;9.05;;
83141;SDS011;75194;51.180;5.972;2024-01-07T11:08:26;17.15;;;8.20;;
83141;SDS011;75194;51.180;5.972;2024-01-07T11:11:02;19.00;;;8.18;;
83141;SDS011;75194;51.180;5.972;2024-01-07T11:13:35;19.65;;;8.65;;
83141;SDS011;75194;51.180;5.972;2024-01-07T11:16:03;18.10;;;8.15;;
83141;SDS011;75194;51.180;5.972;2024-01-07T11:18:30;19.02;;;9.25;;
83141;SDS011;75194;51.180;5.972;2024-01-07T11:21:02;17.55;;;7.78;;
83141;SDS011;75194;51.180;5.972;2024-01-07T11:26:00;16.13;;;7.78;;
83141;SDS011;75194;51.180;5.972;2024-01-07T11:31:18;18.08;;;8.25;;
83141;SDS011;75194;51.180;5.972;2024-01-07T11:33:46;14.05;;;7.80;;
83141;SDS011;75194;51.180;5.972;2024-01-07T11:36:14;14.90;;;6.95;;
83141;SDS011;75194;51.180;5.972;2024-01-07T11:41:15;13.15;;;7.47;;
83141;SDS011;75194;51.180;5.972;2024-01-07T11:43:52;14.60;;;6.60;;
83141;SDS011;75194;51.180;5.972;2024-01-07T11:46:19;14.35;;;6.65;;
83141;SDS011;75194;51.180;5.972;2024-01-07T11:48:45;14.85;;;6.95;;
83141;SDS011;75194;51.180;5.972;2024-01-07T11:51:11;14.30;;;6.95;;
83141;SDS011;75194;51.180;5.972;2024-01-07T11:53:37;13.20;;;6.80;;
83141;SDS011;75194;51.180;5.972;2024-01-07T11:56:03;12.85;;;6.28;;
83141;SDS011;75194;51.180;5.972;2024-01-07T11:58:29;14.80;;;6.65;;
83141;SDS011;75194;51.180;5.972;2024-01-07T12:00:55;13.95;;;6.95;;
83141;SDS011;75194;51.180;5.972;2024-01-07T12:03:22;13.55;;;7.25;;
83141;SDS011;75194;51.180;5.972;2024-01-07T12:05:49;14.20;;;6.07;;
83141;SDS011;75194;51.180;5.972;2024-01-07T12:08:14;11.48;;;5.95;;
83141;SDS011;75194;51.180;5.972;2024-01-07T12:10:41;11.18;;;5.35;;
83141;SDS011;75194;51.180;5.972;2024-01-07T12:13:06;13.10;;;5.32;;
83141;SDS011;75194;51.180;5.972;2024-01-07T12:15:33;10.05;;;3.92;;
83141;SDS011;75194;51.180;5.972;2024-01-07T12:17:59;10.98;;;5.40;;
83141;SDS011;75194;51.180;5.972;2024-01-07T12:20:26;11.80;;;5.32;;
83141;SDS011;75194;51.180;5.972;2024-01-07T12:22:55;13.27;;;5.47;;
83141;SDS011;75194;51.180;5.972;2024-01-07T12:25:22;14.02;;;5.82;;
83141;SDS011;75194;51.180;5.972;2024-01-07T12:27:51;9.93;;;4.95;;
83141;SDS011;75194;51.180;5.972;2024-01-07T12:30:20;12.05;;;6.05;;
83141;SDS011;75194;51.180;5.972;2024-01-07T12:32:46;14.63;;;6.60;;
83141;SDS011;75194;51.180;5.972;2024-01-07T12:35:11;12.07;;;6.60;;
83141;SDS011;75194;51.180;5.972;2024-01-07T12:37:37;12.40;;;6.80;;
83141;SDS011;75194;51.180;5.972;2024-01-07T12:40:03;12.93;;;5.88;;
83141;SDS011;75194;51.180;5.972;2024-01-07T12:42:29;13.32;;;6.10;;
83141;SDS011;75194;51.180;5.972;2024-01-07T12:44:55;12.40;;;6.15;;
83141;SDS011;75194;51.180;5.972;2024-01-07T12:47:21;10.68;;;4.85;;
83141;SDS011;75194;51.180;5.972;2024-01-07T12:49:46;10.10;;;5.10;;
83141;SDS011;75194;51.180;5.972;2024-01-07T12:52:12;12.07;;;5.78;;
83141;SDS011;75194;51.180;5.972;2024-01-07T12:54:38;11.80;;;5.25;;
83141;SDS011;75194;51.180;5.972;2024-01-07T12:57:04;10.95;;;5.05;;
83141;SDS011;75194;51.180;5.972;2024-01-07T12:59:29;10.25;;;4.70;;
83141;SDS011;75194;51.180;5.972;2024-01-07T13:01:56;10.27;;;5.38;;
83141;SDS011;75194;51.180;5.972;2024-01-07T13:04:21;11.65;;;5.28;;
83141;SDS011;75194;51.180;5.972;2024-01-07T13:06:47;10.55;;;5.28;;
83141;SDS011;75194;51.180;5.972;2024-01-07T13:09:13;13.05;;;5.95;;
83141;SDS011;75194;51.180;5.972;2024-01-07T13:11:38;12.73;;;5.32;;
83141;SDS011;75194;51.180;5.972;2024-01-07T13:14:04;12.20;;;5.47;;
83141;SDS011;75194;51.180;5.972;2024-01-07T13:16:30;11.18;;;5.50;;
83141;SDS011;75194;51.180;5.972;2024-01-07T13:18:56;9.43;;;4.53;;
83141;SDS011;75194;51.180;5.972;2024-01-07T13:21:22;10.18;;;4.15;;
83141;SDS011;75194;51.180;5.972;2024-01-07T13:23:47;10.68;;;4.38;;
83141;SDS011;75194;51.180;5.972;2024-01-07T13:26:13;10.32;;;4.47;;
83141;SDS011;75194;51.180;5.972;2024-01-07T13:28:40;10.73;;;4.80;;
83141;SDS011;75194;51.180;5.972;2024-01-07T13:31:06;12.55;;;5.10;;
83141;SDS011;75194;51.180;5.972;2024-01-07T13:33:33;11.77;;;5.88;;
83141;SDS011;75194;51.180;5.972;2024-01-07T13:35:58;10.30;;;4.28;;
83141;SDS011;75194;51.180;5.972;2024-01-07T13:38:24;9.55;;;3.97;;
83141;SDS011;75194;51.180;5.972;2024-01-07T13:40:50;8.30;;;4.03;;
83141;SDS011;75194;51.180;5.972;2024-01-07T13:43:16;10.18;;;4.20;;
83141;SDS011;75194;51.180;5.972;2024-01-07T13:45:42;9.15;;;3.88;;
83141;SDS011;75194;51.180;5.972;2024-01-07T13:48:08;8.77;;;3.72;;
83141;SDS011;75194;51.180;5.972;2024-01-07T13:50:34;8.02;;;3.60;;
83141;SDS011;75194;51.180;5.972;2024-01-07T13:52:59;9.93;;;4.07;;
83141;SDS011;75194;51.180;5.972;2024-01-07T13:55:25;9.50;;;4.43;;
83141;SDS011;75194;51.180;5.972;2024-01-07T13:57:50;10.13;;;3.92;;
83141;SDS011;75194;51.180;5.972;2024-01-07T14:00:16;9.98;;;3.95;;
83141;SDS011;75194;51.180;5.972;2024-01-07T14:02:43;10.95;;;4.50;;
83141;SDS011;75194;51.180;5.972;2024-01-07T14:05:14;8.15;;;3.80;;
83141;SDS011;75194;51.180;5.972;2024-01-07T14:07:40;7.10;;;3.40;;
83141;SDS011;75194;51.180;5.972;2024-01-07T14:10:06;8.88;;;3.00;;
83141;SDS011;75194;51.180;5.972;2024-01-07T14:12:33;8.93;;;3.80;;
83141;SDS011;75194;51.180;5.972;2024-01-07T14:14:59;7.63;;;3.05;;
83141;SDS011;75194;51.180;5.972;2024-01-07T14:17:25;7.93;;;3.95;;
83141;SDS011;75194;51.180;5.972;2024-01-07T14:19:51;8.45;;;4.25;;
83141;SDS011;75194;51.180;5.972;2024-01-07T14:22:19;6.90;;;3.72;;
83141;SDS011;75194;51.180;5.972;2024-01-07T14:24:45;8.65;;;3.65;;
83141;SDS011;75194;51.180;5.972;2024-01-07T14:27:11;10.27;;;4.05;;
83141;SDS011;75194;51.180;5.972;2024-01-07T14:29:37;9.10;;;4.07;;
83141;SDS011;75194;51.180;5.972;2024-01-07T14:32:04;8.63;;;3.40;;
83141;SDS011;75194;51.180;5.972;2024-01-07T14:34:31;10.18;;;4.63;;
83141;SDS011;75194;51.180;5.972;2024-01-07T14:36:56;8.02;;;3.75;;
83141;SDS011;75194;51.180;5.972;2024-01-07T14:39:22;9.20;;;3.17;;
83141;SDS011;75194;51.180;5.972;2024-01-07T14:41:47;8.80;;;3.50;;
83141;SDS011;75194;51.180;5.972;2024-01-07T14:44:13;8.65;;;4.00;;